Time;durP1;ratioP1;P1;durP2;ratioP2;P2;SDS_P1;SDS_P2;PMS_P1;PMS_P2;Temp;Humidity;BMP_temperature;BMP_pressure;BME280_temperature;BME280_humidity;BME280_pressure;Samples;Min_cycle;Max_cycle;Signal;HPM_P1;HPM_P2
2022/08/20 00:00:36;;;;;;;15.83;14.23;;;20.20;99.90;;;;;;5073101;28;20457;-52
2022/08/20 00:03:06;;;;;;;16.87;15.20;;;20.20;99.90;;;;;;5069526;28;21080;-52
2022/08/20 00:05:35;;;;;;;16.47;14.80;;;20.20;99.90;;;;;;5075048;28;20989;-53
2022/08/20 00:08:04;;;;;;;19.00;15.33;;;20.20;99.90;;;;;;5069901;28;20650;-51
2022/08/20 00:10:33;;;;;;;16.93;15.30;;;20.10;99.90;;;;;;5072493;28;22078;-51
2022/08/20 00:13:00;;;;;;;16.07;14.40;;;20.10;99.90;;;;;;5079838;28;20897;-53
2022/08/20 00:15:29;;;;;;;19.80;15.80;;;20.10;99.90;;;;;;5075641;28;20456;-52
2022/08/20 00:17:56;;;;;;;18.17;15.77;;;20.10;99.90;;;;;;5081801;28;21068;-51
2022/08/20 00:20:26;;;;;;;16.93;15.23;;;20.10;99.90;;;;;;5072945;28;21061;-52
2022/08/20 00:22:52;;;;;;;17.53;14.50;;;20.10;99.90;;;;;;5078984;28;21073;-53
2022/08/20 00:25:20;;;;;;;17.73;15.93;;;20.10;99.90;;;;;;5070863;28;20905;-51
2022/08/20 00:27:47;;;;;;;18.37;16.40;;;20.10;99.90;;;;;;5074685;28;20560;-51
2022/08/20 00:30:14;;;;;;;17.10;14.57;;;20.10;99.90;;;;;;5069159;28;20489;-53
2022/08/20 00:32:43;;;;;;;16.00;14.47;;;20.10;99.90;;;;;;5074880;28;20563;-53
2022/08/20 00:35:10;;;;;;;17.27;15.50;;;20.10;99.90;;;;;;5082762;28;20540;-52
2022/08/20 00:37:36;;;;;;;15.50;14.00;;;20.10;99.90;;;;;;5075724;28;20543;-53
2022/08/20 00:40:04;;;;;;;16.40;14.73;;;20.10;99.90;;;;;;5073844;28;20545;-53
2022/08/20 00:42:40;;;;;;;14.37;12.87;;;20.10;99.90;;;;;;5078197;28;20562;-52
2022/08/20 00:45:07;;;;;;;20.87;15.37;;;20.10;99.90;;;;;;5081902;28;20495;-53
2022/08/20 00:47:34;;;;;;;15.47;13.87;;;20.10;99.90;;;;;;5070263;28;20996;-51
2022/08/20 00:50:01;;;;;;;15.27;13.67;;;20.10;99.90;;;;;;5077215;28;20480;-52
2022/08/20 00:52:27;;;;;;;16.27;14.67;;;20.10;99.90;;;;;;5067207;28;20488;-52
2022/08/20 00:54:57;;;;;;;14.60;13.30;;;20.00;99.90;;;;;;5071050;28;20552;-52
2022/08/20 00:57:28;;;;;;;15.67;14.07;;;20.00;99.90;;;;;;5071922;28;20562;-52
2022/08/20 00:59:58;;;;;;;16.83;14.20;;;20.00;99.90;;;;;;5073241;28;20460;-52
2022/08/20 01:02:27;;;;;;;15.50;14.00;;;20.00;99.90;;;;;;5075769;28;20485;-52
2022/08/20 01:04:55;;;;;;;14.47;12.97;;;20.00;99.90;;;;;;5078587;28;20491;-52
2022/08/20 01:07:31;;;;;;;14.00;12.60;;;20.00;99.90;;;;;;5064244;28;20581;-52
2022/08/20 01:09:58;;;;;;;14.43;13.03;;;20.00;99.90;;;;;;5066747;28;20452;-52
2022/08/20 01:12:26;;;;;;;13.67;12.27;;;20.00;99.90;;;;;;5069575;28;20866;-52
2022/08/20 01:14:54;;;;;;;13.97;12.57;;;20.00;99.90;;;;;;5069889;28;21040;-53
2022/08/20 01:17:25;;;;;;;13.57;12.07;;;20.00;99.90;;;;;;5071227;28;20492;-53
2022/08/20 01:19:57;;;;;;;12.57;11.33;;;20.00;99.90;;;;;;5075516;28;20506;-52
2022/08/20 01:25:28;;;;;;;11.60;10.60;;;19.90;99.90;;;;;;5075275;28;20459;-51
2022/08/20 01:27:56;;;;;;;13.27;11.90;;;20.00;99.90;;;;;;5067238;28;20512;-52
2022/08/20 01:30:26;;;;;;;12.50;11.20;;;19.90;99.90;;;;;;5068196;28;20469;-52
2022/08/20 01:32:52;;;;;;;11.73;10.63;;;19.90;99.90;;;;;;5069153;28;20531;-52
2022/08/20 01:35:21;;;;;;;11.90;10.70;;;19.90;99.90;;;;;;5080569;28;20464;-52
2022/08/20 01:37:48;;;;;;;12.60;11.40;;;19.90;99.90;;;;;;5073198;28;20537;-52
2022/08/20 01:40:21;;;;;;;13.50;12.17;;;19.90;99.90;;;;;;5076080;28;20531;-52
2022/08/20 01:42:49;;;;;;;12.93;11.53;;;19.90;99.90;;;;;;5072658;28;20513;-52
2022/08/20 01:45:16;;;;;;;12.60;11.40;;;19.90;99.90;;;;;;5069194;28;20827;-52
2022/08/20 01:47:43;;;;;;;13.00;11.73;;;19.90;99.90;;;;;;5074029;28;20499;-53
2022/08/20 01:50:17;;;;;;;13.40;12.00;;;19.90;99.90;;;;;;5066203;28;20461;-53
2022/08/20 01:52:51;;;;;;;14.77;12.17;;;19.90;99.90;;;;;;5071862;28;20485;-53
2022/08/20 01:55:18;;;;;;;12.93;11.60;;;19.90;99.90;;;;;;5064497;28;20548;-51
2022/08/20 01:57:47;;;;;;;13.60;12.20;;;19.90;99.90;;;;;;5069209;28;20561;-53
2022/08/20 02:00:18;;;;;;;12.50;11.40;;;19.80;99.90;;;;;;5067802;28;20548;-51
2022/08/20 02:02:44;;;;;;;18.53;10.80;;;19.80;99.90;;;;;;5071450;28;20480;-52
2022/08/20 02:05:11;;;;;;;12.67;11.47;;;19.80;99.90;;;;;;5065164;28;20915;-52
2022/08/20 02:07:38;;;;;;;13.50;12.13;;;19.80;99.90;;;;;;5071887;28;20488;-53
2022/08/20 02:10:07;;;;;;;14.77;13.33;;;19.80;99.90;;;;;;5068060;28;20453;-52
2022/08/20 02:12:34;;;;;;;15.07;13.47;;;19.70;99.90;;;;;;5069571;28;20557;-51
2022/08/20 02:15:01;;;;;;;13.33;12.10;;;19.70;99.90;;;;;;5065301;28;20467;-52
2022/08/20 02:17:29;;;;;;;17.00;13.20;;;19.70;99.90;;;;;;5072113;28;20551;-52
2022/08/20 02:20:07;;;;;;;14.27;12.87;;;19.70;99.90;;;;;;5068411;28;20826;-52
2022/08/20 02:22:46;;;;;;;17.93;14.13;;;19.70;99.90;;;;;;5069418;28;20473;-52
2022/08/20 02:25:13;;;;;;;14.57;13.03;;;19.80;99.90;;;;;;5067844;28;20944;-51
2022/08/20 02:27:44;;;;;;;15.13;13.60;;;19.70;99.90;;;;;;5072238;28;20487;-51
2022/08/20 02:30:14;;;;;;;14.63;13.23;;;19.80;99.90;;;;;;5072472;28;20467;-52
2022/08/20 02:32:43;;;;;;;13.90;11.80;;;19.70;99.90;;;;;;5069556;28;20506;-53
2022/08/20 02:35:12;;;;;;;15.50;14.00;;;19.70;99.90;;;;;;5070017;28;20468;-53
2022/08/20 02:37:39;;;;;;;15.23;13.83;;;19.70;99.90;;;;;;5066117;28;20466;-52
2022/08/20 02:40:10;;;;;;;16.63;14.90;;;19.70;99.90;;;;;;5075486;28;20489;-52
2022/08/20 02:42:41;;;;;;;14.67;13.27;;;19.70;99.90;;;;;;5072578;28;20594;-52
2022/08/20 02:45:10;;;;;;;16.30;14.30;;;19.70;99.90;;;;;;5076854;28;20457;-51
2022/08/20 02:47:37;;;;;;;15.53;13.97;;;19.70;99.90;;;;;;5079628;28;20495;-53
2022/08/20 02:50:07;;;;;;;15.10;13.60;;;19.70;99.90;;;;;;5088334;28;20464;-53
2022/08/20 02:52:33;;;;;;;15.57;14.07;;;19.70;99.90;;;;;;5076472;28;20480;-53
2022/08/20 02:55:00;;;;;;;16.23;14.53;;;19.70;99.90;;;;;;5075580;28;20489;-53
2022/08/20 02:57:28;;;;;;;22.53;15.50;;;19.70;99.90;;;;;;5073127;28;20992;-53
2022/08/20 02:59:55;;;;;;;18.30;15.43;;;19.70;99.90;;;;;;5066545;28;20467;-52
2022/08/20 03:02:22;;;;;;;17.33;15.53;;;19.70;99.90;;;;;;5068369;28;20853;-53
2022/08/20 03:04:48;;;;;;;16.83;15.03;;;19.70;99.90;;;;;;5085280;28;20853;-53
2022/08/20 03:07:16;;;;;;;18.40;16.50;;;19.60;99.90;;;;;;5071657;28;20492;-52
2022/08/20 03:09:43;;;;;;;18.07;16.20;;;19.70;99.90;;;;;;5078741;28;20492;-52
2022/08/20 03:12:09;;;;;;;18.40;16.50;;;19.60;99.90;;;;;;5067923;28;20488;-52
2022/08/20 03:14:37;;;;;;;17.70;15.90;;;19.60;99.90;;;;;;5075603;28;21049;-52
2022/08/20 03:17:04;;;;;;;16.20;14.67;;;19.60;99.90;;;;;;5067478;28;20461;-52
2022/08/20 03:19:30;;;;;;;22.60;16.20;;;19.60;99.90;;;;;;5071371;28;20517;-52
2022/08/20 03:21:57;;;;;;;18.87;16.87;;;19.60;99.90;;;;;;5074058;28;20522;-51
2022/08/20 03:24:25;;;;;;;18.23;16.33;;;19.60;99.90;;;;;;5066285;28;20570;-53
2022/08/20 03:26:51;;;;;;;19.90;17.80;;;19.60;99.90;;;;;;5076982;28;20549;-51
2022/08/20 03:29:18;;;;;;;23.20;16.03;;;19.60;99.90;;;;;;5070699;28;20635;-53
2022/08/20 03:31:45;;;;;;;18.93;16.93;;;19.60;99.90;;;;;;5074108;28;20536;-52
2022/08/20 03:34:11;;;;;;;19.80;17.73;;;19.60;99.90;;;;;;5070040;28;20511;-52
2022/08/20 03:36:38;;;;;;;20.70;17.90;;;19.60;99.90;;;;;;5078628;28;20784;-52
2022/08/20 03:39:10;;;;;;;20.00;16.70;;;19.60;99.90;;;;;;5072569;28;20480;-52
2022/08/20 03:41:38;;;;;;;17.60;15.80;;;19.60;99.90;;;;;;5074629;28;20467;-52
2022/08/20 03:44:05;;;;;;;19.53;16.93;;;19.50;99.90;;;;;;5068006;28;20483;-52
2022/08/20 03:46:32;;;;;;;18.60;15.70;;;19.50;99.90;;;;;;5084727;28;20455;-52
2022/08/20 03:48:59;;;;;;;19.00;17.10;;;19.50;99.90;;;;;;5069605;28;20562;-52
2022/08/20 03:51:25;;;;;;;19.17;17.20;;;19.50;99.90;;;;;;5070751;28;20496;-51
2022/08/20 03:53:52;;;;;;;18.80;16.80;;;19.50;99.90;;;;;;5076080;28;20530;-52
2022/08/20 03:56:18;;;;;;;18.93;16.97;;;19.50;99.90;;;;;;5071757;28;20456;-52
2022/08/20 03:58:46;;;;;;;18.80;16.80;;;19.50;99.90;;;;;;5065058;28;20911;-53
2022/08/20 04:01:13;;;;;;;21.40;18.63;;;19.50;99.90;;;;;;5068351;28;21027;-53
2022/08/20 04:03:40;;;;;;;18.90;16.90;;;19.50;99.90;;;;;;5069794;28;21009;-52
2022/08/20 04:06:07;;;;;;;18.77;16.87;;;19.50;99.90;;;;;;5073768;28;20464;-52
2022/08/20 04:08:34;;;;;;;20.50;16.40;;;19.40;99.90;;;;;;5075717;28;20556;-52
2022/08/20 04:11:00;;;;;;;21.00;18.63;;;19.40;99.90;;;;;;5072678;28;20468;-52
2022/08/20 04:13:29;;;;;;;19.33;17.27;;;19.50;99.90;;;;;;5075106;28;20892;-52
2022/08/20 04:15:58;;;;;;;20.27;17.33;;;19.40;99.90;;;;;;5070151;28;20495;-51
2022/08/20 04:18:25;;;;;;;17.60;15.90;;;19.40;99.90;;;;;;5075607;28;20507;-52
2022/08/20 04:20:53;;;;;;;19.03;17.03;;;19.40;99.90;;;;;;5075140;28;20465;-52
2022/08/20 04:23:20;;;;;;;20.27;18.13;;;19.40;99.90;;;;;;5072571;28;20971;-52
2022/08/20 04:25:48;;;;;;;21.53;17.90;;;19.40;99.90;;;;;;5072008;28;20464;-52
2022/08/20 04:28:20;;;;;;;20.00;18.00;;;19.40;99.90;;;;;;5079507;28;20479;-51
2022/08/20 04:30:47;;;;;;;20.57;18.33;;;19.40;99.90;;;;;;5071624;28;20461;-52
2022/08/20 04:33:15;;;;;;;21.97;19.30;;;19.40;99.90;;;;;;5072925;28;20541;-52
2022/08/20 04:35:42;;;;;;;22.73;17.47;;;19.40;99.90;;;;;;5070535;28;20452;-52
2022/08/20 04:38:14;;;;;;;21.00;18.17;;;19.40;99.90;;;;;;5071456;28;20570;-51
2022/08/20 04:40:55;;;;;;;19.10;17.10;;;19.40;99.90;;;;;;5072441;28;21125;-52
2022/08/20 04:43:23;;;;;;;21.73;17.47;;;19.40;99.90;;;;;;5071318;28;20486;-52
2022/08/20 04:45:50;;;;;;;20.00;17.90;;;19.40;99.90;;;;;;5069472;28;20497;-51
2022/08/20 04:48:19;;;;;;;20.20;17.93;;;19.40;99.90;;;;;;5072188;28;20564;-51
2022/08/20 04:50:46;;;;;;;21.97;19.57;;;19.40;99.90;;;;;;5077613;28;20460;-51
2022/08/20 04:53:17;;;;;;;21.10;17.77;;;19.40;99.90;;;;;;5073718;28;20500;-52
2022/08/20 04:55:45;;;;;;;21.40;18.20;;;19.40;99.90;;;;;;5071260;28;20989;-51
2022/08/20 04:58:15;;;;;;;20.60;17.87;;;19.50;99.90;;;;;;5079640;28;20485;-52
2022/08/20 05:00:46;;;;;;;21.07;18.83;;;19.40;99.90;;;;;;5066614;28;20468;-52
2022/08/20 05:03:12;;;;;;;19.77;17.70;;;19.40;99.90;;;;;;5069337;28;20513;-52
2022/08/20 05:05:40;;;;;;;24.83;19.70;;;19.40;99.90;;;;;;5070326;28;20495;-51
2022/08/20 05:08:07;;;;;;;23.73;19.50;;;19.30;99.90;;;;;;5074535;28;20568;-51
2022/08/20 05:10:37;;;;;;;20.87;18.40;;;19.40;99.90;;;;;;5075055;28;20456;-51
2022/08/20 05:13:04;;;;;;;25.20;19.10;;;19.40;99.90;;;;;;5070096;28;20449;-51
2022/08/20 05:15:30;;;;;;;22.63;19.60;;;19.40;99.90;;;;;;5070773;28;20452;-51
2022/08/20 05:18:01;;;;;;;21.60;19.40;;;19.30;99.90;;;;;;5071503;28;20566;-52
2022/08/20 05:20:30;;;;;;;22.90;19.90;;;19.40;99.90;;;;;;5069383;28;20457;-52
2022/08/20 05:22:58;;;;;;;22.03;19.60;;;19.30;99.90;;;;;;5069463;28;20461;-52
2022/08/20 05:25:27;;;;;;;22.13;19.73;;;19.40;99.90;;;;;;5079285;28;20461;-52
2022/08/20 05:27:56;;;;;;;23.67;20.90;;;19.30;99.90;;;;;;5066286;28;20477;-52
2022/08/20 05:30:23;;;;;;;22.57;20.20;;;19.30;99.90;;;;;;5068639;28;20496;-52
2022/08/20 05:32:49;;;;;;;26.30;19.50;;;19.30;99.90;;;;;;5070950;28;20985;-51
2022/08/20 05:35:16;;;;;;;25.53;20.53;;;19.30;99.90;;;;;;5080244;28;20455;-51
2022/08/20 05:37:43;;;;;;;24.23;20.87;;;19.30;99.90;;;;;;5069847;28;20504;-51
2022/08/20 05:40:15;;;;;;;27.63;22.03;;;19.30;99.90;;;;;;5078804;28;20473;-53
2022/08/20 05:42:42;;;;;;;23.17;20.03;;;19.30;99.90;;;;;;5072258;28;20463;-53
2022/08/20 05:45:09;;;;;;;22.20;19.80;;;19.30;99.90;;;;;;5078433;28;20480;-53
2022/08/20 05:47:39;;;;;;;23.60;20.50;;;19.30;99.90;;;;;;5067711;28;20488;-52
2022/08/20 05:50:08;;;;;;;24.53;21.47;;;19.40;99.90;;;;;;5066083;28;20485;-50
2022/08/20 05:52:34;;;;;;;23.17;20.47;;;19.40;99.90;;;;;;5067728;28;20977;-51
2022/08/20 05:55:01;;;;;;;25.50;21.90;;;19.40;99.90;;;;;;5077909;28;20509;-52
2022/08/20 05:57:29;;;;;;;22.80;20.23;;;19.40;99.90;;;;;;5067517;28;20489;-51
2022/08/20 05:59:55;;;;;;;25.30;21.50;;;19.40;99.90;;;;;;5068139;28;20500;-52
2022/08/20 06:05:07;;;;;;;23.60;21.10;;;19.50;99.90;;;;;;5069352;28;20475;-51
2022/08/20 06:07:33;;;;;;;22.97;20.47;;;19.50;99.90;;;;;;5067311;28;20495;-50
2022/08/20 06:10:00;;;;;;;24.27;20.93;;;19.40;99.90;;;;;;5071047;28;20534;-51
2022/08/20 06:12:28;;;;;;;27.17;22.03;;;19.50;99.90;;;;;;5070711;28;20452;-51
2022/08/20 06:14:55;;;;;;;24.30;21.80;;;19.50;99.90;;;;;;5074740;28;20493;-50
2022/08/20 06:17:22;;;;;;;30.30;21.33;;;19.50;99.90;;;;;;5066797;28;20520;-51
2022/08/20 06:19:48;;;;;;;23.50;21.10;;;19.50;99.90;;;;;;5066456;28;20467;-51
2022/08/20 06:22:16;;;;;;;27.27;22.30;;;19.50;99.90;;;;;;5071156;28;20461;-51
2022/08/20 06:24:43;;;;;;;23.50;21.00;;;19.50;99.90;;;;;;5067036;28;20517;-51
2022/08/20 06:27:14;;;;;;;28.03;20.17;;;19.40;99.90;;;;;;5066896;28;20461;-51
2022/08/20 06:29:42;;;;;;;30.03;23.57;;;19.50;99.90;;;;;;5077446;28;20511;-51
2022/08/20 06:32:09;;;;;;;27.03;21.87;;;19.50;99.90;;;;;;5068495;28;20458;-51
2022/08/20 06:34:35;;;;;;;26.00;22.33;;;19.50;99.90;;;;;;5077538;28;20809;-51
2022/08/20 06:37:02;;;;;;;30.53;22.40;;;19.50;99.90;;;;;;5079935;28;20494;-50
2022/08/20 06:39:31;;;;;;;29.30;23.37;;;19.50;99.90;;;;;;5068020;28;20472;-51
2022/08/20 06:41:58;;;;;;;26.90;22.00;;;19.50;99.90;;;;;;5067455;28;20457;-51
2022/08/20 06:44:27;;;;;;;24.80;21.13;;;19.50;99.90;;;;;;5077913;28;20546;-51
2022/08/20 06:46:59;;;;;;;28.73;23.70;;;19.50;99.90;;;;;;5063532;28;20492;-51
2022/08/20 06:49:26;;;;;;;25.37;22.17;;;19.60;99.90;;;;;;5063093;28;20480;-52
2022/08/20 06:51:52;;;;;;;31.90;23.17;;;19.50;99.90;;;;;;5085383;28;20499;-51
2022/08/20 06:54:19;;;;;;;25.43;22.27;;;19.50;99.90;;;;;;5077816;28;20491;-52
2022/08/20 06:56:45;;;;;;;30.23;24.63;;;19.50;99.90;;;;;;5076363;28;20520;-51
2022/08/20 06:59:12;;;;;;;28.80;23.30;;;19.50;99.90;;;;;;5066603;28;20512;-51
2022/08/20 07:01:38;;;;;;;27.20;22.93;;;19.50;99.90;;;;;;5065833;28;20492;-51
2022/08/20 07:04:07;;;;;;;28.03;24.17;;;19.60;99.90;;;;;;5068790;28;20484;-51
2022/08/20 07:06:34;;;;;;;32.47;25.03;;;19.60;99.90;;;;;;5075100;28;20514;-51
2022/08/20 07:09:00;;;;;;;30.27;24.40;;;19.60;99.90;;;;;;5065366;28;20492;-51
2022/08/20 07:11:27;;;;;;;34.93;25.97;;;19.60;99.90;;;;;;5066211;28;20488;-51
2022/08/20 07:13:55;;;;;;;32.10;24.93;;;19.60;99.90;;;;;;5071532;28;20495;-51
2022/08/20 07:16:21;;;;;;;37.57;27.57;;;19.60;99.90;;;;;;5068543;28;20461;-51
2022/08/20 07:18:48;;;;;;;31.27;24.20;;;19.60;99.90;;;;;;5083239;28;20492;-52
2022/08/20 07:21:16;;;;;;;31.73;26.80;;;19.60;99.90;;;;;;5068407;28;20549;-52
2022/08/20 07:23:43;;;;;;;33.50;25.77;;;19.70;99.90;;;;;;5066515;28;20488;-51
2022/08/20 07:26:09;;;;;;;33.70;26.20;;;19.70;99.90;;;;;;5069724;28;20492;-52
2022/08/20 07:28:36;;;;;;;35.27;26.80;;;19.70;99.90;;;;;;5067774;28;20481;-51
2022/08/20 07:33:44;;;;;;;35.90;27.87;;;19.70;99.90;;;;;;5046900;28;20503;-52
2022/08/20 07:36:11;;;;;;;33.60;25.30;;;19.70;99.90;;;;;;5069399;28;20885;-52
2022/08/20 07:38:39;;;;;;;31.53;26.17;;;19.70;99.90;;;;;;5072936;28;20500;-51
2022/08/20 07:41:08;;;;;;;35.63;27.30;;;19.70;99.90;;;;;;5071757;28;20526;-51
2022/08/20 07:43:35;;;;;;;33.10;27.57;;;19.80;99.90;;;;;;5073397;28;20511;-51
2022/08/20 07:46:07;;;;;;;34.53;26.97;;;19.70;99.90;;;;;;5069054;28;20453;-51
2022/08/20 07:48:38;;;;;;;33.13;27.00;;;19.80;99.90;;;;;;5071897;28;20503;-51
2022/08/20 07:51:05;;;;;;;33.20;27.50;;;19.80;99.90;;;;;;5073987;28;20950;-50
2022/08/20 07:53:33;;;;;;;30.00;26.23;;;19.80;99.90;;;;;;5072934;28;20513;-50
2022/08/20 07:56:02;;;;;;;38.00;28.37;;;19.90;99.90;;;;;;5086217;28;20451;-51
2022/08/20 07:58:29;;;;;;;34.40;27.03;;;19.90;99.90;;;;;;5071262;28;20514;-52
2022/08/20 08:00:55;;;;;;;36.80;28.30;;;19.90;99.90;;;;;;5065370;28;20488;-50
2022/08/20 08:03:22;;;;;;;39.37;28.47;;;19.90;99.90;;;;;;5071812;28;20497;-51
2022/08/20 08:05:50;;;;;;;31.37;26.10;;;19.90;99.90;;;;;;5077853;28;20511;-51
2022/08/20 08:08:21;;;;;;;38.57;30.00;;;20.00;99.90;;;;;;5073535;28;21118;-51
2022/08/20 08:10:52;;;;;;;39.63;29.33;;;20.00;99.90;;;;;;5079393;28;20493;-52
2022/08/20 08:13:20;;;;;;;33.87;28.87;;;20.00;99.90;;;;;;5074168;28;20868;-51
2022/08/20 08:15:49;;;;;;;38.00;28.43;;;20.00;99.90;;;;;;5076233;28;20463;-51
2022/08/20 08:18:20;;;;;;;36.87;29.20;;;20.00;99.90;;;;;;5067523;28;20508;-51
2022/08/20 08:20:51;;;;;;;39.70;27.77;;;20.00;99.90;;;;;;5066522;28;20468;-52
2022/08/20 08:23:19;;;;;;;37.00;27.83;;;20.00;99.90;;;;;;5075935;28;20457;-51
2022/08/20 08:25:45;;;;;;;38.03;28.63;;;20.00;99.90;;;;;;5065945;28;20480;-50
2022/08/20 08:28:13;;;;;;;35.70;27.13;;;20.10;99.90;;;;;;5073004;28;20507;-51
2022/08/20 08:30:42;;;;;;;33.87;26.83;;;20.00;99.90;;;;;;5072769;28;20574;-51
2022/08/20 08:33:29;;;;;;;34.90;27.80;;;20.00;99.90;;;;;;5080619;28;20468;-51
2022/08/20 08:35:57;;;;;;;31.37;25.87;;;20.00;99.90;;;;;;5072440;28;20556;-51
2022/08/20 08:38:25;;;;;;;38.10;27.00;;;20.10;99.90;;;;;;5075895;28;21040;-51
2022/08/20 08:40:54;;;;;;;35.97;27.30;;;20.10;99.90;;;;;;5082218;28;20448;-51
2022/08/20 08:43:24;;;;;;;34.00;27.87;;;20.10;99.90;;;;;;5073762;28;20514;-52
2022/08/20 08:45:57;;;;;;;37.87;29.27;;;20.10;99.90;;;;;;5078832;28;20500;-51
2022/08/20 08:48:31;;;;;;;33.23;26.10;;;20.20;99.90;;;;;;5076262;28;20492;-51
2022/08/20 08:50:59;;;;;;;34.00;27.13;;;20.30;99.90;;;;;;5076682;28;20460;-51
2022/08/20 08:53:30;;;;;;;35.17;28.13;;;20.30;99.90;;;;;;5065130;28;20862;-52
2022/08/20 08:55:58;;;;;;;41.23;28.70;;;20.40;99.90;;;;;;5066427;28;20457;-51
2022/08/20 08:58:26;;;;;;;34.30;26.97;;;20.50;99.90;;;;;;5066972;28;20476;-51
2022/08/20 09:00:54;;;;;;;34.00;26.37;;;20.50;99.90;;;;;;5064097;28;20591;-51
2022/08/20 09:03:26;;;;;;;34.60;25.37;;;20.50;99.90;;;;;;5074173;28;20481;-51
2022/08/20 09:05:57;;;;;;;33.80;26.60;;;20.50;99.90;;;;;;5066693;28;20477;-50
2022/08/20 09:08:26;;;;;;;29.80;25.53;;;20.50;99.90;;;;;;5068053;28;20583;-51
2022/08/20 09:10:53;;;;;;;35.40;27.07;;;20.50;99.90;;;;;;5072611;28;20557;-51
2022/08/20 09:13:19;;;;;;;33.47;26.23;;;20.50;99.90;;;;;;5069657;28;20873;-51
2022/08/20 09:15:46;;;;;;;35.67;26.63;;;20.50;99.90;;;;;;5080195;28;20448;-51
2022/08/20 09:18:14;;;;;;;33.30;26.77;;;20.60;99.90;;;;;;5076987;28;20503;-51
2022/08/20 09:20:40;;;;;;;30.60;25.73;;;20.50;99.90;;;;;;5084455;28;20484;-51
2022/08/20 09:23:07;;;;;;;30.10;24.50;;;20.50;99.90;;;;;;5068293;28;20476;-51
2022/08/20 09:25:34;;;;;;;30.80;25.67;;;20.50;99.90;;;;;;5076070;28;20512;-51
2022/08/20 09:28:00;;;;;;;36.17;26.77;;;20.50;99.90;;;;;;5080595;28;20501;-51
2022/08/20 09:30:27;;;;;;;30.83;26.00;;;20.50;99.90;;;;;;5078434;28;21113;-52
2022/08/20 09:32:54;;;;;;;31.20;24.90;;;20.50;99.90;;;;;;5079092;28;20969;-51
2022/08/20 09:35:22;;;;;;;37.27;24.67;;;20.50;99.90;;;;;;5079921;28;20863;-51
2022/08/20 09:37:48;;;;;;;30.80;24.67;;;20.50;77.30;;;;;;5076596;28;20510;-51
2022/08/20 09:40:15;;;;;;;32.03;24.83;;;20.60;25.50;;;;;;5075234;28;21034;-52
2022/08/20 09:42:42;;;;;;;27.60;24.40;;;20.50;37.70;;;;;;5084876;28;20536;-51
2022/08/20 09:45:10;;;;;;;30.80;23.60;;;20.60;35.70;;;;;;5069160;28;20520;-51
2022/08/20 09:47:36;;;;;;;29.50;23.33;;;20.60;38.30;;;;;;5072499;28;20540;-51
2022/08/20 09:50:04;;;;;;;27.80;22.50;;;20.60;46.80;;;;;;5079221;28;20472;-51
2022/08/20 09:52:34;;;;;;;26.40;21.70;;;20.60;52.70;;;;;;5063758;28;20469;-51
2022/08/20 09:55:05;;;;;;;23.50;20.00;;;20.70;58.80;;;;;;5085424;28;20484;-52
2022/08/20 09:57:32;;;;;;;27.50;20.40;;;20.70;65.30;;;;;;5070028;28;20988;-51
2022/08/20 10:00:01;;;;;;;24.33;18.77;;;20.80;65.30;;;;;;5072178;28;20453;-52
2022/08/20 10:02:28;;;;;;;21.80;19.37;;;20.70;67.70;;;;;;5079644;28;20464;-51
2022/08/20 10:04:54;;;;;;;25.70;20.60;;;20.80;69.70;;;;;;5075582;28;20512;-51
2022/08/20 10:07:21;;;;;;;22.50;17.87;;;20.80;66.60;;;;;;5072722;28;20974;-51
2022/08/20 10:09:49;;;;;;;19.83;16.37;;;20.80;89.50;;;;;;5080315;28;20523;-52
2022/08/20 10:12:15;;;;;;;20.63;17.30;;;20.70;99.90;;;;;;5068769;28;20465;-53
2022/08/20 10:14:42;;;;;;;16.83;14.23;;;20.80;99.90;;;;;;5067751;28;20480;-52
2022/08/20 10:17:09;;;;;;;16.20;14.50;;;20.80;99.90;;;;;;5079656;28;20465;-53
2022/08/20 10:19:35;;;;;;;15.20;13.37;;;20.80;99.90;;;;;;5081839;28;21046;-53
2022/08/20 10:22:02;;;;;;;14.83;13.07;;;20.80;99.90;;;;;;5082705;28;20472;-52
2022/08/20 10:24:29;;;;;;;12.33;10.60;;;20.90;99.90;;;;;;5071500;28;21044;-52
2022/08/20 10:26:59;;;;;;;13.53;11.60;;;20.90;99.90;;;;;;5086859;28;20464;-53
2022/08/20 10:29:27;;;;;;;16.60;13.50;;;20.90;99.90;;;;;;5073920;28;20477;-52
2022/08/20 10:31:55;;;;;;;12.93;11.47;;;21.00;84.70;;;;;;5068200;28;20489;-52
2022/08/20 10:34:22;;;;;;;15.43;11.57;;;21.00;99.90;;;;;;5071671;28;20471;-52
2022/08/20 10:36:49;;;;;;;14.70;13.20;;;21.00;99.90;;;;;;5076707;28;20488;-53
2022/08/20 10:39:16;;;;;;;19.20;15.53;;;21.10;99.90;;;;;;5076699;28;21018;-53
2022/08/20 10:41:42;;;;;;;14.63;13.17;;;21.10;99.90;;;;;;5064135;28;20571;-53
2022/08/20 10:44:10;;;;;;;13.80;12.30;;;21.10;99.90;;;;;;5069167;28;20456;-52
2022/08/20 10:46:37;;;;;;;11.80;10.60;;;21.20;99.90;;;;;;5073559;28;20526;-52
2022/08/20 10:49:04;;;;;;;9.13;7.47;;;21.20;38.70;;;;;;5078627;28;20966;-52
2022/08/20 10:51:31;;;;;;;8.43;7.60;;;21.20;91.70;;;;;;5081870;28;20460;-53
2022/08/20 10:53:57;;;;;;;6.60;5.90;;;21.30;81.90;;;;;;5089354;28;20498;-53
2022/08/20 10:56:24;;;;;;;6.67;6.03;;;21.30;99.90;;;;;;5068884;28;20461;-52
2022/08/20 10:58:50;;;;;;;7.37;5.07;;;21.40;99.90;;;;;;5070291;28;20508;-52
2022/08/20 11:01:18;;;;;;;4.90;4.50;;;21.40;99.90;;;;;;5073011;28;20959;-52
2022/08/20 11:03:45;;;;;;;6.17;5.57;;;21.50;99.90;;;;;;5084419;28;20802;-52
2022/08/20 11:06:11;;;;;;;5.23;4.83;;;21.50;99.90;;;;;;5074395;28;20488;-52
2022/08/20 11:08:38;;;;;;;5.53;5.13;;;21.50;99.90;;;;;;5078616;28;20484;-52
2022/08/20 11:11:05;;;;;;;6.57;5.70;;;21.60;99.90;;;;;;5072307;28;20465;-52
2022/08/20 11:13:32;;;;;;;7.33;6.63;;;21.50;99.90;;;;;;5084442;28;20453;-52
2022/08/20 11:15:59;;;;;;;5.03;4.53;;;21.50;99.90;;;;;;5074107;28;20441;-52
2022/08/20 11:18:27;;;;;;;5.37;4.97;;;21.60;99.90;;;;;;5086616;28;20459;-52
2022/08/20 11:20:53;;;;;;;6.23;5.03;;;21.60;99.90;;;;;;5086275;28;20453;-52
2022/08/20 11:23:20;;;;;;;4.80;4.50;;;21.70;99.90;;;;;;5094942;28;20513;-52
2022/08/20 11:25:46;;;;;;;5.40;4.90;;;21.70;99.90;;;;;;5081830;28;20525;-51
2022/08/20 11:28:14;;;;;;;4.87;4.47;;;21.60;99.90;;;;;;5080630;28;21081;-52
2022/08/20 11:30:41;;;;;;;5.93;5.43;;;21.70;99.90;;;;;;5076260;28;20456;-52
2022/08/20 11:33:08;;;;;;;7.00;6.50;;;21.70;99.90;;;;;;5076954;28;20962;-52
2022/08/20 11:35:36;;;;;;;5.20;4.90;;;21.80;99.90;;;;;;5080036;28;20457;-51
2022/08/20 11:38:04;;;;;;;5.13;4.50;;;21.70;99.90;;;;;;5071964;28;20489;-52
2022/08/20 11:40:31;;;;;;;5.00;4.30;;;21.80;99.90;;;;;;5080997;28;20506;-52
2022/08/20 11:42:58;;;;;;;6.83;4.83;;;21.70;99.90;;;;;;5067896;28;20468;-52
2022/08/20 11:45:24;;;;;;;4.80;4.50;;;21.70;99.90;;;;;;5075221;28;20771;-51
2022/08/20 11:47:51;;;;;;;4.67;4.20;;;21.70;99.90;;;;;;5068037;28;20511;-52
2022/08/20 11:50:20;;;;;;;4.93;4.57;;;21.70;99.90;;;;;;5073794;28;20464;-52
2022/08/20 11:52:48;;;;;;;5.00;4.70;;;21.70;99.90;;;;;;5069291;28;20493;-51
2022/08/20 11:55:16;;;;;;;4.67;4.37;;;21.60;99.90;;;;;;5076093;28;20437;-52
2022/08/20 11:57:45;;;;;;;6.53;5.97;;;21.70;99.90;;;;;;5077677;28;20515;-52
2022/08/20 12:00:14;;;;;;;5.90;5.30;;;21.60;99.90;;;;;;5076108;28;20445;-51
2022/08/20 12:02:42;;;;;;;10.03;6.83;;;21.70;99.90;;;;;;5077578;28;20464;-52
2022/08/20 12:05:10;;;;;;;6.83;6.30;;;21.60;99.90;;;;;;5076080;28;20480;-51
2022/08/20 12:07:36;;;;;;;7.23;6.63;;;21.70;99.90;;;;;;5080872;28;20452;-52
2022/08/20 12:10:06;;;;;;;8.17;7.40;;;21.70;99.90;;;;;;5065240;28;20850;-52
2022/08/20 12:12:32;;;;;;;8.93;7.33;;;21.80;99.90;;;;;;5068917;28;20456;-52
2022/08/20 12:14:59;;;;;;;7.27;6.53;;;21.80;99.90;;;;;;5076020;28;20495;-53
2022/08/20 12:17:28;;;;;;;8.67;7.10;;;21.80;99.90;;;;;;5073262;28;20468;-52
2022/08/20 12:19:57;;;;;;;12.57;11.23;;;21.90;99.90;;;;;;5069348;28;20464;-52
2022/08/20 12:22:24;;;;;;;8.60;7.80;;;21.90;99.90;;;;;;5069435;28;20958;-52
2022/08/20 12:24:51;;;;;;;8.70;7.87;;;22.10;99.90;;;;;;5073764;28;20996;-52
2022/08/20 12:27:21;;;;;;;9.30;6.70;;;22.10;99.90;;;;;;5072955;28;20460;-52
2022/08/20 12:29:51;;;;;;;6.27;5.63;;;22.10;99.90;;;;;;5072487;28;20866;-51
2022/08/20 12:32:19;;;;;;;7.77;6.20;;;22.00;99.90;;;;;;5080962;28;20444;-52
2022/08/20 12:34:46;;;;;;;6.67;5.87;;;21.90;99.90;;;;;;5071869;28;20812;-52
2022/08/20 12:37:15;;;;;;;6.50;5.93;;;21.90;99.90;;;;;;5072251;28;20945;-52
2022/08/20 12:39:43;;;;;;;7.67;7.07;;;21.90;99.90;;;;;;5072288;28;20485;-52
2022/08/20 12:42:11;;;;;;;6.80;6.30;;;21.80;99.90;;;;;;5071351;28;20461;-51